Time;durP1;ratioP1;P1;durP2;ratioP2;P2;SDS_P1;SDS_P2;PMS_P1;PMS_P2;Temp;Humidity;BMP_temperature;BMP_pressure;BME280_temperature;BME280_humidity;BME280_pressure;Samples;Min_cycle;Max_cycle;Signal;HPM_P1;HPM_P2
2020/12/17 00:00:21;;;;;;;16.37;9.57;;;11.10;99.90;;;;;;5091625;28;20472;-72
2020/12/17 00:02:47;;;;;;;19.90;10.77;;;11.10;99.90;;;;;;5091710;28;20458;-72
2020/12/17 00:05:13;;;;;;;19.50;8.87;;;11.10;99.90;;;;;;5091668;28;20422;-71
2020/12/17 00:07:39;;;;;;;14.60;8.53;;;11.10;99.90;;;;;;5091656;28;20186;-72
2020/12/17 00:10:06;;;;;;;16.13;8.07;;;11.10;99.90;;;;;;5091686;28;20687;-72
2020/12/17 00:12:40;;;;;;;11.70;6.67;;;11.10;99.90;;;;;;5091463;28;20777;-71
2020/12/17 00:15:08;;;;;;;7.63;5.43;;;11.10;99.90;;;;;;5091665;28;20436;-72
2020/12/17 00:17:51;;;;;;;8.30;6.00;;;11.10;99.90;;;;;;5091735;28;20424;-71
2020/12/17 00:20:19;;;;;;;11.93;5.83;;;11.10;99.90;;;;;;5091500;28;20475;-72
2020/12/17 00:22:45;;;;;;;5.67;5.17;;;11.00;99.90;;;;;;5091114;28;20464;-72
2020/12/17 00:25:12;;;;;;;8.03;5.50;;;11.10;99.90;;;;;;5091503;28;20423;-72
2020/12/17 00:27:39;;;;;;;6.60;5.00;;;10.90;99.90;;;;;;5091777;28;20416;-72
2020/12/17 00:30:06;;;;;;;10.40;6.20;;;10.70;99.90;;;;;;5095293;28;21117;-72
2020/12/17 00:32:32;;;;;;;7.20;5.60;;;10.60;99.90;;;;;;5093568;28;20502;-72
2020/12/17 00:34:57;;;;;;;7.60;6.80;;;10.50;99.90;;;;;;5095192;28;20462;-72
2020/12/17 00:37:30;;;;;;;8.37;6.70;;;10.40;99.90;;;;;;5095174;28;20184;-71
2020/12/17 00:39:56;;;;;;;8.77;7.13;;;10.30;99.90;;;;;;5095371;28;20193;-71
2020/12/17 00:42:22;;;;;;;11.17;7.87;;;10.20;99.90;;;;;;5094653;28;20495;-71
2020/12/17 00:44:48;;;;;;;10.27;6.87;;;10.10;99.90;;;;;;5094806;28;20438;-71
2020/12/17 00:47:14;;;;;;;10.53;6.93;;;10.10;99.90;;;;;;5094525;28;20165;-71
2020/12/17 00:49:39;;;;;;;14.73;8.83;;;10.00;99.90;;;;;;5094928;28;20215;-71
2020/12/17 00:52:05;;;;;;;11.57;8.83;;;10.00;99.90;;;;;;5094665;28;20412;-71
2020/12/17 00:54:31;;;;;;;10.87;7.93;;;9.90;99.90;;;;;;5095034;28;20797;-71
2020/12/17 00:56:57;;;;;;;8.47;7.40;;;9.90;99.90;;;;;;5094818;28;20189;-71
2020/12/17 00:59:22;;;;;;;11.47;6.93;;;9.90;99.90;;;;;;5094583;28;20485;-71
2020/12/17 01:01:48;;;;;;;8.97;5.97;;;9.90;99.90;;;;;;5094617;28;20255;-71
2020/12/17 01:04:14;;;;;;;9.23;7.50;;;9.90;99.90;;;;;;5094168;28;20201;-72
2020/12/17 01:06:41;;;;;;;9.87;6.83;;;9.90;99.90;;;;;;5094941;28;20437;-72
2020/12/17 01:09:06;;;;;;;7.20;5.80;;;9.90;99.90;;;;;;5094928;28;20584;-72
2020/12/17 01:11:32;;;;;;;8.83;7.23;;;10.00;99.90;;;;;;5094533;28;20427;-72
2020/12/17 01:13:58;;;;;;;9.00;7.63;;;10.00;99.90;;;;;;5092977;28;20177;-72
2020/12/17 01:16:24;;;;;;;7.77;6.87;;;10.00;99.90;;;;;;5094424;28;20530;-72
2020/12/17 01:18:49;;;;;;;11.70;6.93;;;10.00;99.90;;;;;;5093949;28;20434;-71
2020/12/17 01:21:16;;;;;;;9.67;8.13;;;10.00;99.90;;;;;;5094397;28;20197;-71
2020/12/17 01:23:42;;;;;;;11.27;8.40;;;10.10;99.90;;;;;;5093353;28;20276;-72
2020/12/17 01:26:08;;;;;;;9.53;8.13;;;10.10;99.90;;;;;;5092051;28;20416;-72
2020/12/17 01:28:41;;;;;;;10.13;8.40;;;10.10;99.90;;;;;;5090671;28;20423;-72
2020/12/17 01:31:13;;;;;;;10.57;6.70;;;10.10;99.90;;;;;;5091402;28;20442;-72
2020/12/17 01:33:40;;;;;;;8.83;6.30;;;10.10;99.90;;;;;;5094014;28;20419;-72
2020/12/17 01:36:07;;;;;;;10.97;8.10;;;10.10;99.90;;;;;;5090455;28;20463;-72
2020/12/17 01:38:37;;;;;;;9.23;6.63;;;10.20;99.90;;;;;;5093018;28;20451;-71
2020/12/17 01:41:04;;;;;;;16.30;7.90;;;10.20;99.90;;;;;;5093537;28;20462;-72
2020/12/17 01:43:44;;;;;;;10.97;8.00;;;10.10;99.90;;;;;;5093900;28;20466;-71
2020/12/17 01:46:11;;;;;;;10.90;8.30;;;10.10;99.90;;;;;;5093965;28;20424;-71
2020/12/17 01:48:38;;;;;;;9.43;8.47;;;10.10;99.90;;;;;;5093526;28;20791;-71
2020/12/17 01:51:05;;;;;;;11.30;8.50;;;10.10;99.90;;;;;;5093552;28;20446;-71
2020/12/17 01:53:39;;;;;;;11.13;9.97;;;10.00;99.90;;;;;;5091922;28;20423;-72
2020/12/17 01:56:26;;;;;;;10.10;7.87;;;10.00;99.90;;;;;;5093898;28;20428;-72
2020/12/17 01:59:07;;;;;;;10.60;9.00;;;10.00;99.90;;;;;;5093785;28;20907;-71
2020/12/17 02:01:33;;;;;;;10.27;8.87;;;10.00;99.90;;;;;;5093109;28;20442;-71
2020/12/17 02:04:00;;;;;;;14.47;10.83;;;10.00;99.90;;;;;;5093209;28;20447;-72
2020/12/17 02:06:26;;;;;;;10.70;8.87;;;9.90;99.90;;;;;;5093382;28;20173;-72
2020/12/17 02:08:52;;;;;;;11.43;9.60;;;10.00;99.90;;;;;;5092727;28;20508;-72
2020/12/17 02:11:19;;;;;;;13.47;9.83;;;10.00;99.90;;;;;;5093078;28;20470;-72
2020/12/17 02:13:46;;;;;;;12.00;8.50;;;10.00;99.90;;;;;;5093450;28;20783;-72
2020/12/17 02:16:13;;;;;;;11.77;8.97;;;9.90;99.90;;;;;;5093017;28;20419;-72
2020/12/17 02:18:39;;;;;;;11.63;10.40;;;9.90;99.90;;;;;;5093260;28;20758;-72
2020/12/17 02:21:05;;;;;;;11.77;9.07;;;9.90;99.90;;;;;;5092967;28;20485;-71
2020/12/17 02:23:30;;;;;;;11.10;9.10;;;9.90;99.90;;;;;;5092873;28;20203;-72
2020/12/17 02:25:56;;;;;;;11.60;8.80;;;9.80;99.90;;;;;;5093230;28;20921;-71
2020/12/17 02:28:22;;;;;;;10.10;9.03;;;9.80;99.90;;;;;;5092963;28;20696;-71
2020/12/17 02:30:49;;;;;;;11.23;10.03;;;9.80;99.90;;;;;;5085506;28;20200;-71
2020/12/17 02:33:16;;;;;;;12.10;9.57;;;9.80;99.90;;;;;;5092973;28;20412;-71
2020/12/17 02:35:41;;;;;;;11.70;9.87;;;9.70;99.90;;;;;;5092762;28;20447;-72
2020/12/17 02:38:07;;;;;;;12.53;10.20;;;9.70;99.90;;;;;;5092971;28;20892;-72
2020/12/17 02:40:34;;;;;;;16.73;11.70;;;9.70;99.90;;;;;;5092606;28;20605;-72
2020/12/17 02:43:00;;;;;;;14.93;10.07;;;9.70;99.90;;;;;;5092745;28;20456;-72
2020/12/17 02:45:26;;;;;;;11.77;10.20;;;9.70;99.90;;;;;;5092760;28;20464;-72
2020/12/17 02:47:52;;;;;;;14.50;10.57;;;9.70;99.90;;;;;;5092766;28;20208;-72
2020/12/17 02:50:18;;;;;;;16.13;11.20;;;9.70;99.90;;;;;;5091610;28;20440;-72
2020/12/17 02:52:44;;;;;;;12.90;11.10;;;9.70;99.90;;;;;;5092896;28;20169;-72
2020/12/17 02:55:11;;;;;;;13.67;9.60;;;9.70;99.90;;;;;;5087847;28;20423;-71
2020/12/17 02:57:37;;;;;;;12.47;10.50;;;9.70;99.90;;;;;;5075120;28;20170;-71
2020/12/17 03:00:08;;;;;;;16.20;11.13;;;9.70;99.90;;;;;;5092100;28;20496;-71
2020/12/17 03:02:34;;;;;;;13.47;10.30;;;9.80;99.90;;;;;;5092309;28;20173;-71
2020/12/17 03:05:00;;;;;;;21.30;9.80;;;9.70;99.90;;;;;;5092612;28;20916;-71
2020/12/17 03:07:25;;;;;;;15.33;9.87;;;9.70;99.90;;;;;;5092281;28;20223;-71
2020/12/17 03:09:51;;;;;;;22.37;10.67;;;9.70;99.90;;;;;;5092400;28;20188;-72
2020/12/17 03:12:16;;;;;;;13.00;10.67;;;9.60;99.90;;;;;;5092109;28;20261;-72
2020/12/17 03:14:42;;;;;;;15.80;10.53;;;9.60;99.90;;;;;;5092277;28;20178;-71
2020/12/17 03:17:08;;;;;;;16.70;10.50;;;9.60;99.90;;;;;;5092305;28;20295;-71
2020/12/17 03:19:33;;;;;;;12.20;9.50;;;9.60;99.90;;;;;;5092496;28;20631;-71
2020/12/17 03:21:59;;;;;;;13.33;9.37;;;9.60;99.90;;;;;;5091627;28;20268;-71
2020/12/17 03:24:24;;;;;;;13.53;9.80;;;9.50;99.90;;;;;;5092174;28;20201;-71
2020/12/17 03:26:50;;;;;;;15.37;9.80;;;9.50;99.90;;;;;;5092285;28;20177;-71
2020/12/17 03:29:16;;;;;;;13.90;9.67;;;9.50;99.90;;;;;;5092118;28;20177;-71
2020/12/17 03:31:42;;;;;;;14.87;9.30;;;9.50;99.90;;;;;;5077260;28;20296;-71
2020/12/17 03:34:07;;;;;;;19.10;9.37;;;9.50;99.90;;;;;;5090406;28;20200;-71
2020/12/17 03:36:33;;;;;;;15.80;9.40;;;9.50;99.90;;;;;;5088422;28;20201;-72
2020/12/17 03:38:58;;;;;;;14.20;8.63;;;9.50;99.90;;;;;;5092118;28;20173;-71
2020/12/17 03:41:24;;;;;;;13.97;9.23;;;9.50;99.90;;;;;;5092008;28;20193;-72
2020/12/17 03:43:49;;;;;;;10.33;8.57;;;9.50;99.90;;;;;;5091757;28;20221;-71
2020/12/17 03:46:15;;;;;;;10.10;9.10;;;9.50;99.90;;;;;;5091535;28;20183;-72
2020/12/17 03:48:41;;;;;;;10.33;9.20;;;9.50;99.90;;;;;;5091679;28;20681;-72
2020/12/17 03:51:06;;;;;;;11.30;8.33;;;9.50;99.90;;;;;;5091518;28;20189;-71
2020/12/17 03:53:32;;;;;;;12.33;8.80;;;9.40;99.90;;;;;;5091692;28;20178;-71
2020/12/17 03:55:58;;;;;;;11.10;9.10;;;9.40;99.90;;;;;;5091847;28;20256;-71
2020/12/17 03:58:23;;;;;;;23.50;9.03;;;9.40;99.90;;;;;;5091389;28;20188;-71
2020/12/17 04:00:49;;;;;;;9.37;7.67;;;9.50;99.90;;;;;;5091498;28;20209;-72
2020/12/17 04:03:14;;;;;;;11.30;8.93;;;9.50;99.90;;;;;;5094733;28;20690;-72
2020/12/17 04:05:40;;;;;;;11.23;9.47;;;9.40;99.90;;;;;;5095770;28;20181;-72
2020/12/17 04:08:05;;;;;;;9.30;8.40;;;9.50;99.90;;;;;;5095836;28;20173;-72
2020/12/17 04:10:31;;;;;;;10.83;7.83;;;9.40;99.90;;;;;;5095356;28;20238;-72
2020/12/17 04:12:57;;;;;;;10.30;8.53;;;9.50;99.90;;;;;;5095415;28;20815;-71
2020/12/17 04:15:22;;;;;;;9.93;8.43;;;9.50;99.90;;;;;;5095497;28;20178;-71
2020/12/17 04:17:48;;;;;;;10.47;8.53;;;9.40;99.90;;;;;;5095599;28;20230;-71
2020/12/17 04:20:13;;;;;;;11.40;9.50;;;9.40;99.90;;;;;;5095514;28;20193;-72
2020/12/17 04:22:39;;;;;;;10.87;8.67;;;9.40;99.90;;;;;;5094858;28;20198;-71
2020/12/17 04:25:05;;;;;;;12.63;8.63;;;9.40;99.90;;;;;;5095527;28;20209;-71
2020/12/17 04:27:31;;;;;;;9.40;8.33;;;9.40;99.90;;;;;;5095128;28;20211;-72
2020/12/17 04:29:56;;;;;;;11.40;8.77;;;9.50;99.90;;;;;;5092183;28;20832;-72
2020/12/17 04:32:22;;;;;;;9.93;8.10;;;9.50;99.90;;;;;;5091986;28;20166;-72
2020/12/17 04:34:48;;;;;;;10.90;7.47;;;9.60;99.90;;;;;;5093705;28;20238;-72
2020/12/17 04:37:13;;;;;;;12.57;8.80;;;9.70;99.90;;;;;;5095145;28;20685;-72
2020/12/17 04:39:39;;;;;;;7.60;6.90;;;9.80;99.90;;;;;;5095031;28;20252;-72
2020/12/17 04:42:06;;;;;;;11.70;7.57;;;9.80;99.90;;;;;;5094590;28;20584;-72
2020/12/17 04:44:32;;;;;;;6.80;6.07;;;10.00;99.90;;;;;;5093441;28;20205;-72
2020/12/17 04:47:00;;;;;;;9.13;6.40;;;10.10;99.90;;;;;;5095193;28;20473;-72
2020/12/17 04:49:33;;;;;;;8.80;7.10;;;10.10;99.90;;;;;;5094749;28;20427;-72
2020/12/17 04:51:59;;;;;;;6.90;6.27;;;10.20;99.90;;;;;;5093554;28;20446;-72
2020/12/17 04:54:25;;;;;;;8.00;5.83;;;10.30;99.90;;;;;;5094983;28;20424;-72
2020/12/17 04:57:07;;;;;;;6.50;5.80;;;10.40;99.90;;;;;;5094807;28;20192;-71
2020/12/17 04:59:51;;;;;;;5.70;5.20;;;10.50;99.90;;;;;;5094959;28;20433;-72
2020/12/17 05:02:19;;;;;;;5.93;5.33;;;10.50;99.90;;;;;;5093486;28;20438;-72
2020/12/17 05:04:47;;;;;;;6.30;5.70;;;10.50;99.90;;;;;;5093713;28;20431;-72
2020/12/17 05:07:21;;;;;;;9.53;6.40;;;10.50;99.90;;;;;;5094625;28;20449;-72
2020/12/17 05:09:48;;;;;;;8.40;6.17;;;10.60;99.90;;;;;;5094477;28;20426;-71
2020/12/17 05:12:14;;;;;;;10.57;7.17;;;10.60;99.90;;;;;;5086159;28;20449;-71
2020/12/17 05:14:40;;;;;;;6.07;5.53;;;10.60;99.90;;;;;;5093686;28;20423;-72
2020/12/17 05:17:06;;;;;;;7.67;5.87;;;10.60;99.90;;;;;;5094591;28;20427;-72
2020/12/17 05:19:32;;;;;;;8.07;5.90;;;10.50;99.90;;;;;;5094384;28;20180;-72
2020/12/17 05:21:59;;;;;;;7.13;6.07;;;10.60;99.90;;;;;;5094090;28;20458;-72
2020/12/17 05:24:26;;;;;;;7.37;6.53;;;10.60;99.90;;;;;;5094218;28;20558;-72
2020/12/17 05:26:54;;;;;;;6.13;5.00;;;10.70;99.90;;;;;;5094361;28;20426;-72
2020/12/17 05:29:20;;;;;;;7.73;5.90;;;10.70;99.90;;;;;;5094312;28;20416;-71
2020/12/17 05:31:47;;;;;;;6.60;6.00;;;10.60;99.90;;;;;;5088216;28;20443;-71
2020/12/17 05:34:13;;;;;;;7.83;5.60;;;10.70;99.90;;;;;;5094402;28;20419;-71
2020/12/17 05:36:40;;;;;;;6.67;5.97;;;10.60;99.90;;;;;;5094021;28;22217;-72
2020/12/17 05:39:13;;;;;;;6.13;5.17;;;10.70;99.90;;;;;;5094235;28;20427;-72
2020/12/17 05:41:40;;;;;;;8.27;5.97;;;10.70;99.90;;;;;;5093766;28;20476;-71
2020/12/17 05:44:12;;;;;;;9.77;6.30;;;10.70;99.90;;;;;;5093552;28;20488;-71
2020/12/17 05:46:39;;;;;;;6.27;5.07;;;10.70;99.90;;;;;;5093848;28;20415;-71
2020/12/17 05:49:20;;;;;;;7.87;5.40;;;10.80;99.90;;;;;;5094044;28;20454;-71
2020/12/17 05:51:47;;;;;;;9.00;6.50;;;10.80;99.90;;;;;;5093530;28;20905;-72
2020/12/17 05:54:25;;;;;;;14.90;6.27;;;10.70;99.90;;;;;;5094080;28;20423;-72
2020/12/17 05:57:06;;;;;;;5.67;5.07;;;10.80;99.90;;;;;;5078146;28;20514;-71
2020/12/17 05:59:32;;;;;;;6.53;5.73;;;10.80;99.90;;;;;;5093728;28;20449;-72
2020/12/17 06:01:59;;;;;;;7.63;6.30;;;10.80;99.90;;;;;;5093447;28;20462;-72
2020/12/17 06:04:24;;;;;;;8.00;5.43;;;10.90;99.90;;;;;;5093593;28;20455;-72
2020/12/17 06:07:01;;;;;;;6.80;5.93;;;10.80;99.90;;;;;;5093470;28;20792;-71
2020/12/17 06:09:35;;;;;;;7.57;5.53;;;10.80;99.90;;;;;;5091291;28;20193;-71
2020/12/17 06:12:01;;;;;;;9.60;6.73;;;10.80;99.90;;;;;;5093455;28;20422;-72
2020/12/17 06:14:30;;;;;;;9.03;6.47;;;10.80;99.90;;;;;;5093292;28;20430;-72
2020/12/17 06:16:59;;;;;;;7.73;5.93;;;10.70;99.90;;;;;;5093463;28;20431;-71
2020/12/17 06:19:25;;;;;;;8.00;7.00;;;10.70;99.90;;;;;;5093014;28;20427;-72
2020/12/17 06:21:51;;;;;;;9.57;6.37;;;10.70;99.90;;;;;;5092844;28;20858;-72
2020/12/17 06:24:18;;;;;;;6.43;5.83;;;10.70;99.90;;;;;;5093274;28;20451;-72
2020/12/17 06:26:51;;;;;;;8.17;6.90;;;10.70;99.90;;;;;;5092023;28;20214;-72
2020/12/17 06:29:21;;;;;;;9.53;6.87;;;10.70;99.90;;;;;;5093249;28;20419;-72
2020/12/17 06:31:56;;;;;;;7.27;6.50;;;10.70;99.90;;;;;;5089876;28;20443;-72
2020/12/17 06:34:21;;;;;;;6.20;5.60;;;10.70;99.90;;;;;;5092854;28;20839;-72
2020/12/17 06:36:57;;;;;;;7.30;6.60;;;10.70;99.90;;;;;;5092895;28;20519;-71
2020/12/17 06:39:24;;;;;;;8.63;7.73;;;10.60;99.90;;;;;;5091098;28;20177;-72
2020/12/17 06:41:49;;;;;;;14.47;7.10;;;10.50;99.90;;;;;;5091239;28;21022;-71
2020/12/17 06:44:29;;;;;;;10.83;7.70;;;10.40;99.90;;;;;;5076305;28;20523;-72
2020/12/17 06:46:59;;;;;;;9.33;7.03;;;10.30;99.90;;;;;;5078712;28;20210;-72
2020/12/17 06:49:27;;;;;;;11.20;8.30;;;10.30;99.90;;;;;;5081620;28;20435;-72
2020/12/17 06:52:07;;;;;;;12.60;8.27;;;10.30;99.90;;;;;;5092513;28;20448;-72
2020/12/17 06:54:41;;;;;;;14.70;8.00;;;10.30;99.90;;;;;;5092395;28;20423;-72
2020/12/17 06:57:12;;;;;;;12.33;9.40;;;10.20;99.90;;;;;;5092853;28;20412;-72
2020/12/17 06:59:39;;;;;;;10.03;7.37;;;10.10;99.90;;;;;;5092507;28;20419;-71
2020/12/17 07:02:05;;;;;;;7.27;6.57;;;10.10;99.90;;;;;;5092519;28;20451;-71
2020/12/17 07:04:35;;;;;;;10.20;6.70;;;10.00;99.90;;;;;;5078220;28;20509;-71
2020/12/17 07:07:15;;;;;;;9.60;7.23;;;10.00;99.90;;;;;;5092293;28;20861;-71
2020/12/17 07:09:42;;;;;;;12.33;7.93;;;10.10;99.90;;;;;;5087518;28;20427;-71
2020/12/17 07:12:10;;;;;;;12.10;7.23;;;10.10;99.90;;;;;;5092268;28;20416;-71
2020/12/17 07:14:36;;;;;;;10.23;7.73;;;10.10;99.90;;;;;;5092073;28;20939;-71
2020/12/17 07:17:04;;;;;;;8.40;7.60;;;10.00;99.90;;;;;;5092249;28;20497;-71
2020/12/17 07:19:44;;;;;;;10.10;6.63;;;10.00;99.90;;;;;;5092014;28;20212;-72
2020/12/17 07:22:11;;;;;;;7.73;6.93;;;10.00;99.90;;;;;;5090736;28;20431;-72
2020/12/17 07:24:45;;;;;;;8.93;6.60;;;10.00;99.90;;;;;;5092083;28;20463;-72
2020/12/17 07:27:13;;;;;;;11.30;7.30;;;10.10;99.90;;;;;;5092104;28;20422;-72
2020/12/17 07:29:45;;;;;;;8.73;7.23;;;10.10;99.90;;;;;;5090186;28;20420;-72
2020/12/17 07:32:29;;;;;;;7.87;6.20;;;10.00;99.90;;;;;;5077500;28;20427;-72
2020/12/17 07:35:05;;;;;;;9.87;6.70;;;10.00;99.90;;;;;;5090863;28;20435;-72
2020/12/17 07:37:39;;;;;;;5.20;4.50;;;9.90;99.90;;;;;;5090077;28;20443;-72
2020/12/17 07:40:20;;;;;;;9.70;7.43;;;9.90;99.90;;;;;;5092107;28;20442;-72
2020/12/17 07:43:13;;;;;;;6.17;4.50;;;10.00;99.90;;;;;;5091481;28;20487;-72
2020/12/17 07:45:54;;;;;;;8.60;4.70;;;9.90;99.90;;;;;;5091902;28;20423;-72
2020/12/17 07:48:47;;;;;;;4.57;4.00;;;9.90;99.90;;;;;;5091901;28;21065;-72
2020/12/17 07:51:13;;;;;;;3.63;3.33;;;9.90;99.90;;;;;;5091600;28;20482;-72
2020/12/17 07:53:43;;;;;;;3.83;3.30;;;10.00;99.90;;;;;;5091745;28;20451;-72
2020/12/17 07:56:10;;;;;;;4.57;3.80;;;10.00;99.90;;;;;;5091952;28;20169;-72
2020/12/17 07:58:39;;;;;;;3.33;2.67;;;9.90;99.90;;;;;;5091598;28;20499;-72
2020/12/17 08:01:05;;;;;;;3.73;2.93;;;9.90;99.90;;;;;;5091461;28;20805;-72
2020/12/17 08:03:45;;;;;;;9.63;3.53;;;10.00;99.90;;;;;;5091750;28;20447;-72
2020/12/17 08:06:13;;;;;;;3.23;2.30;;;10.00;99.90;;;;;;5091905;28;20431;-72
2020/12/17 08:08:39;;;;;;;3.00;2.43;;;10.00;99.90;;;;;;5091330;28;20423;-72
2020/12/17 08:11:06;;;;;;;2.93;2.63;;;9.90;99.90;;;;;;5091399;28;20510;-72
2020/12/17 08:13:31;;;;;;;2.60;2.40;;;9.90;99.90;;;;;;5091388;28;20529;-72
2020/12/17 08:16:00;;;;;;;3.10;2.33;;;9.90;99.90;;;;;;5091633;28;20433;-72
2020/12/17 08:18:31;;;;;;;3.00;2.70;;;9.80;99.90;;;;;;5091551;28;20182;-72
2020/12/17 08:21:11;;;;;;;3.60;3.30;;;9.80;99.90;;;;;;5091403;28;20451;-72
2020/12/17 08:23:39;;;;;;;5.47;5.03;;;9.80;99.90;;;;;;5091251;28;20455;-72
2020/12/17 08:26:06;;;;;;;3.47;3.17;;;9.80;99.90;;;;;;5091652;28;20835;-72
2020/12/17 08:28:37;;;;;;;3.73;3.30;;;9.70;99.90;;;;;;5091322;28;20506;-72
2020/12/17 08:31:14;;;;;;;17.07;15.37;;;9.70;99.90;;;;;;5084987;28;20443;-72
2020/12/17 08:33:54;;;;;;;12.60;11.50;;;9.70;99.90;;;;;;5091274;28;22179;-72
2020/12/17 08:36:26;;;;;;;3.17;2.90;;;9.70;99.90;;;;;;5091290;28;20423;-72
2020/12/17 08:39:09;;;;;;;5.17;1.97;;;9.60;99.90;;;;;;5090962;28;20415;-72
2020/12/17 08:41:46;;;;;;;6.80;5.47;;;9.60;99.90;;;;;;5085835;28;20526;-72
2020/12/17 08:44:15;;;;;;;6.77;5.00;;;9.50;99.90;;;;;;5091435;28;20964;-72
2020/12/17 08:46:56;;;;;;;2.40;2.20;;;9.60;99.90;;;;;;5091069;28;20428;-72
2020/12/17 08:49:24;;;;;;;2.47;2.27;;;9.50;99.90;;;;;;5092794;28;20427;-72
2020/12/17 08:51:50;;;;;;;2.30;2.10;;;9.60;99.90;;;;;;5092324;28;20443;-72
2020/12/17 08:54:36;;;;;;;2.43;2.23;;;9.60;99.90;;;;;;5094917;28;20928;-72
2020/12/17 08:57:04;;;;;;;2.90;2.07;;;9.60;99.90;;;;;;5094682;28;20646;-72
2020/12/17 08:59:30;;;;;;;2.20;1.90;;;9.70;99.90;;;;;;5087659;28;20430;-72
2020/12/17 09:01:59;;;;;;;4.70;1.43;;;9.70;99.90;;;;;;5088731;28;20514;-72
2020/12/17 09:04:26;;;;;;;3.90;2.30;;;9.70;99.90;;;;;;5086096;28;20273;-72
2020/12/17 09:07:00;;;;;;;2.70;2.13;;;9.80;99.90;;;;;;5089837;28;20427;-72
2020/12/17 09:09:28;;;;;;;4.33;1.73;;;9.80;99.90;;;;;;5088448;28;20469;-72
2020/12/17 09:11:57;;;;;;;1.60;1.20;;;9.80;99.90;;;;;;5086931;28;20443;-72
2020/12/17 09:14:29;;;;;;;2.90;1.30;;;9.80;99.90;;;;;;5085612;28;20428;-72
2020/12/17 09:17:05;;;;;;;2.07;1.27;;;9.80;99.90;;;;;;5086785;28;20954;-72
2020/12/17 09:19:31;;;;;;;1.60;1.50;;;9.90;99.90;;;;;;5087617;28;20544;-72
2020/12/17 09:21:59;;;;;;;2.50;1.63;;;9.90;99.90;;;;;;5086713;28;20879;-72
2020/12/17 09:24:32;;;;;;;1.83;1.50;;;9.90;99.90;;;;;;5088449;28;20447;-73
2020/12/17 09:27:33;;;;;;;1.77;1.67;;;10.00;99.90;;;;;;5085221;28;20431;-73
2020/12/17 09:30:17;;;;;;;10.90;1.90;;;10.10;99.90;;;;;;5085970;28;20444;-73
2020/12/17 09:32:51;;;;;;;2.47;1.53;;;10.20;99.90;;;;;;5082500;28;20933;-72
2020/12/17 09:35:17;;;;;;;1.60;1.30;;;10.30;99.90;;;;;;5082975;28;20424;-73
2020/12/17 09:37:55;;;;;;;1.30;1.20;;;10.40;99.90;;;;;;5084124;28;20467;-73
2020/12/17 09:40:22;;;;;;;2.07;1.50;;;10.70;99.90;;;;;;5083112;28;20420;-73
2020/12/17 09:42:48;;;;;;;3.33;1.10;;;11.20;99.90;;;;;;5081900;28;20408;-73
2020/12/17 09:45:19;;;;;;;1.23;0.90;;;12.30;99.90;;;;;;5085743;28;20415;-74
2020/12/17 09:47:45;;;;;;;2.00;0.93;;;13.30;99.90;;;;;;5094082;28;20181;-75
2020/12/17 09:50:14;;;;;;;1.60;1.10;;;13.90;99.90;;;;;;5093790;28;20943;-74
2020/12/17 09:52:40;;;;;;;3.17;1.10;;;13.80;99.90;;;;;;5093837;28;20404;-73
2020/12/17 09:55:05;;;;;;;1.20;1.00;;;13.50;99.90;;;;;;5094340;28;20398;-73
2020/12/17 09:57:36;;;;;;;1.33;0.70;;;13.10;99.90;;;;;;5093711;28;20962;-73
2020/12/17 10:00:04;;;;;;;2.47;1.37;;;13.10;99.90;;;;;;5092977;28;20181;-72
2020/12/17 10:02:30;;;;;;;1.07;0.90;;;12.90;99.90;;;;;;5093392;28;20447;-72
2020/12/17 10:04:56;;;;;;;0.90;0.80;;;12.40;99.90;;;;;;5093731;28;20506;-73
2020/12/17 10:07:22;;;;;;;1.60;1.23;;;12.20;99.90;;;;;;5093762;28;20498;-73
2020/12/17 10:09:47;;;;;;;1.63;0.87;;;12.50;99.90;;;;;;5088310;28;20594;-73
2020/12/17 10:12:13;;;;;;;2.20;1.10;;;12.40;99.90;;;;;;5073328;28;20167;-73
2020/12/17 10:14:38;;;;;;;2.83;1.30;;;12.30;99.90;;;;;;5073429;28;20248;-73
2020/12/17 10:17:04;;;;;;;1.90;1.00;;;12.10;99.90;;;;;;5087552;28;20234;-73
2020/12/17 10:19:30;;;;;;;2.60;1.30;;;12.10;99.90;;;;;;5093173;28;20215;-73
2020/12/17 10:21:57;;;;;;;1.83;0.97;;;12.10;99.90;;;;;;5092049;28;20193;-73
2020/12/17 10:24:23;;;;;;;1.20;1.10;;;12.00;99.90;;;;;;5092590;28;20491;-73
2020/12/17 10:26:48;;;;;;;1.53;1.07;;;12.00;99.90;;;;;;5093237;28;20426;-73
2020/12/17 10:29:14;;;;;;;1.90;1.30;;;11.90;99.90;;;;;;5089243;28;20416;-73
2020/12/17 10:31:40;;;;;;;1.63;1.30;;;12.10;99.90;;;;;;5089154;28;20193;-73
2020/12/17 10:34:06;;;;;;;1.47;1.10;;;12.00;99.90;;;;;;5092882;28;20203;-72
2020/12/17 10:36:37;;;;;;;2.67;1.33;;;12.20;99.90;;;;;;5082766;28;20177;-73
2020/12/17 10:39:03;;;;;;;1.50;1.20;;;12.80;99.90;;;;;;5087875;28;20604;-72
2020/12/17 10:41:29;;;;;;;1.80;1.50;;;12.90;99.90;;;;;;5083050;28;20509;-73
2020/12/17 10:43:55;;;;;;;1.10;0.83;;;13.10;99.90;;;;;;5085487;28;20455;-73
2020/12/17 10:46:21;;;;;;;1.97;0.90;;;13.50;99.90;;;;;;5087025;28;20411;-73
2020/12/17 10:48:47;;;;;;;3.10;1.13;;;13.60;99.90;;;;;;5083887;28;20274;-73
2020/12/17 10:51:16;;;;;;;3.47;1.07;;;13.30;99.90;;;;;;5084668;28;20618;-73
2020/12/17 10:53:43;;;;;;;3.67;1.53;;;13.30;99.90;;;;;;5087366;28;20443;-73
2020/12/17 10:56:10;;;;;;;1.20;0.90;;;13.60;99.90;;;;;;5085790;28;20469;-73
2020/12/17 10:58:39;;;;;;;3.17;1.03;;;13.90;99.90;;;;;;5083812;28;20424;-73
2020/12/17 11:01:05;;;;;;;2.77;1.20;;;13.90;99.90;;;;;;5082547;28;20433;-73
2020/12/17 11:03:31;;;;;;;1.30;1.03;;;14.20;99.90;;;;;;5090292;28;21064;-74
2020/12/17 11:05:57;;;;;;;3.33;1.20;;;14.40;99.90;;;;;;5091028;28;20416;-73
2020/12/17 11:08:23;;;;;;;2.50;1.93;;;14.60;99.90;;;;;;5090774;28;20162;-73
2020/12/17 11:10:49;;;;;;;6.10;1.60;;;15.10;99.90;;;;;;5089305;28;20220;-74
2020/12/17 11:13:15;;;;;;;5.23;1.70;;;15.80;99.90;;;;;;5090542;28;20412;-73
2020/12/17 11:15:42;;;;;;;3.80;1.80;;;16.00;99.90;;;;;;5090966;28;20640;-73
2020/12/17 11:18:13;;;;;;;2.30;1.17;;;14.90;99.90;;;;;;5089258;28;20176;-73
2020/12/17 11:20:39;;;;;;;5.00;1.47;;;14.40;99.90;;;;;;5090581;28;20467;-73
2020/12/17 11:23:05;;;;;;;1.20;1.00;;;13.90;99.90;;;;;;5085723;28;20475;-73
2020/12/17 11:25:33;;;;;;;2.50;1.20;;;14.00;99.90;;;;;;5082285;28;20173;-73
2020/12/17 11:27:58;;;;;;;2.73;1.57;;;14.30;99.90;;;;;;5081061;28;20222;-73
2020/12/17 11:30:24;;;;;;;2.50;1.33;;;14.80;99.90;;;;;;5081341;28;20429;-72
2020/12/17 11:32:49;;;;;;;3.30;1.70;;;15.30;99.90;;;;;;5081286;28;20639;-73
2020/12/17 11:35:15;;;;;;;4.70;1.20;;;16.00;99.90;;;;;;5047003;28;22672;-74
2020/12/17 11:37:41;;;;;;;2.43;1.53;;;16.50;99.90;;;;;;5010730;28;20190;-73
2020/12/17 11:40:07;;;;;;;1.97;1.67;;;16.70;99.90;;;;;;5008933;28;20184;-73
2020/12/17 11:42:33;;;;;;;4.50;1.30;;;17.20;99.90;;;;;;5008382;28;20757;-73
2020/12/17 11:44:58;;;;;;;3.23;1.47;;;17.50;99.90;;;;;;5008424;28;20208;-73
2020/12/17 11:47:24;;;;;;;2.00;1.70;;;16.50;99.90;;;;;;5008988;28;20270;-72
2020/12/17 11:49:50;;;;;;;6.53;1.40;;;16.20;99.90;;;;;;5002934;28;20773;-73
2020/12/17 11:52:16;;;;;;;2.53;1.37;;;15.60;99.90;;;;;;5001050;28;20634;-73
2020/12/17 11:54:41;;;;;;;5.17;1.80;;;15.20;99.90;;;;;;5001691;28;20176;-73
2020/12/17 11:57:07;;;;;;;6.03;1.57;;;14.80;99.90;;;;;;5005426;28;20420;-73
2020/12/17 11:59:33;;;;;;;4.53;3.10;;;14.50;99.90;;;;;;5005634;28;20661;-73
2020/12/17 12:01:58;;;;;;;8.17;2.83;;;14.00;99.90;;;;;;5006095;28;20196;-73
2020/12/17 12:04:24;;;;;;;3.33;1.23;;;13.50;99.90;;;;;;5005085;28;20725;-73
2020/12/17 12:06:49;;;;;;;5.20;2.43;;;13.30;99.90;;;;;;5017459;28;20702;-73
2020/12/17 12:09:19;;;;;;;98.47;67.17;;;12.90;99.90;;;;;;5005068;28;20259;-73
2020/12/17 12:11:46;;;;;;;4.83;2.10;;;12.80;99.90;;;;;;5002867;28;20832;-73
2020/12/17 12:14:12;;;;;;;4.13;2.00;;;12.80;99.90;;;;;;5005416;28;20834;-73
2020/12/17 12:16:39;;;;;;;1.93;1.43;;;12.50;99.90;;;;;;5004810;28;20431;-73
2020/12/17 12:19:04;;;;;;;2.23;1.57;;;12.50;99.90;;;;;;5004118;28;20416;-73
2020/12/17 12:21:30;;;;;;;7.43;3.60;;;12.60;99.90;;;;;;5005019;28;20490;-73
2020/12/17 12:23:55;;;;;;;2.40;1.67;;;12.50;99.90;;;;;;5007768;28;20808;-73
2020/12/17 12:26:21;;;;;;;8.03;1.47;;;12.50;99.90;;;;;;5006802;28;20247;-73
2020/12/17 12:28:47;;;;;;;2.17;1.47;;;12.50;99.90;;;;;;5009182;28;20176;-73
2020/12/17 12:31:16;;;;;;;6.10;2.20;;;12.30;99.90;;;;;;5002729;28;20244;-73
2020/12/17 12:33:42;;;;;;;3.10;1.80;;;12.20;99.90;;;;;;5009262;28;20219;-73
2020/12/17 12:36:09;;;;;;;3.13;1.90;;;12.50;99.90;;;;;;5004811;28;20432;-73
2020/12/17 12:38:34;;;;;;;2.20;2.00;;;12.40;99.90;;;;;;5008250;28;20419;-73
2020/12/17 12:41:00;;;;;;;3.73;1.70;;;12.50;99.90;;;;;;5011018;28;20967;-73
2020/12/17 12:43:26;;;;;;;3.70;1.80;;;12.50;99.90;;;;;;5007949;28;20482;-73
2020/12/17 12:45:51;;;;;;;7.13;1.67;;;12.40;99.90;;;;;;5008850;28;20176;-73
2020/12/17 12:48:17;;;;;;;7.07;1.70;;;12.30;99.90;;;;;;5008974;28;20181;-73
2020/12/17 12:50:50;;;;;;;3.97;1.33;;;12.20;99.90;;;;;;5041768;28;20192;-73